sensor_id;sensor_type;location;lat;lon;timestamp;pressure;altitude;pressure_sealevel;temperature;humidity
42411;BME280;28056;51.112;0.984;2022-10-23T00:04:49;100133.44;;;19.76;51.31
42411;BME280;28056;51.112;0.984;2022-10-23T00:07:17;100125.27;;;20.03;51.21
42411;BME280;28056;51.112;0.984;2022-10-23T00:09:45;100119.62;;;20.04;51.01
42411;BME280;28056;51.112;0.984;2022-10-23T00:12:12;100116.47;;;19.76;50.61
42411;BME280;28056;51.112;0.984;2022-10-23T00:14:40;100114.59;;;20.22;50.68
42411;BME280;28056;51.112;0.984;2022-10-23T00:17:07;100109.18;;;19.94;50.61
42411;BME280;28056;51.112;0.984;2022-10-23T00:19:34;100110.29;;;19.86;50.64
42411;BME280;28056;51.112;0.984;2022-10-23T00:22:02;100102.39;;;20.00;50.73
42411;BME280;28056;51.112;0.984;2022-10-23T00:24:30;100094.01;;;19.69;50.96
42411;BME280;28056;51.112;0.984;2022-10-23T00:26:58;100093.66;;;19.93;51.28
42411;BME280;28056;51.112;0.984;2022-10-23T00:29:25;100090.18;;;19.56;51.08
42411;BME280;28056;51.112;0.984;2022-10-23T00:31:53;100087.77;;;19.47;51.17
42411;BME280;28056;51.112;0.984;2022-10-23T00:34:20;100087.34;;;19.68;51.63
42411;BME280;28056;51.112;0.984;2022-10-23T00:36:48;100081.90;;;19.54;51.66
42411;BME280;28056;51.112;0.984;2022-10-23T00:39:15;100080.83;;;19.47;52.19
42411;BME280;28056;51.112;0.984;2022-10-23T00:41:43;100078.45;;;19.24;52.43
42411;BME280;28056;51.112;0.984;2022-10-23T00:45:11;100077.68;;;19.14;52.34
42411;BME280;28056;51.112;0.984;2022-10-23T00:47:39;100071.51;;;19.23;52.44
42411;BME280;28056;51.112;0.984;2022-10-23T00:50:07;100066.00;;;19.30;52.32
42411;BME280;28056;51.112;0.984;2022-10-23T00:52:40;100064.73;;;19.30;52.32
42411;BME280;28056;51.112;0.984;2022-10-23T00:55:08;100064.66;;;19.19;52.54
42411;BME280;28056;51.112;0.984;2022-10-23T00:57:36;100064.75;;;19.31;52.57
42411;BME280;28056;51.112;0.984;2022-10-23T01:00:04;100057.94;;;19.38;52.48
42411;BME280;28056;51.112;0.984;2022-10-23T01:02:32;100056.51;;;19.44;52.30
42411;BME280;28056;51.112;0.984;2022-10-23T01:05:00;100057.70;;;19.50;52.15
42411;BME280;28056;51.112;0.984;2022-10-23T01:07:32;100063.69;;;19.59;52.24
42411;BME280;28056;51.112;0.984;2022-10-23T01:10:07;100064.89;;;19.63;51.98
42411;BME280;28056;51.112;0.984;2022-10-23T01:12:41;100062.92;;;19.59;51.86
42411;BME280;28056;51.112;0.984;2022-10-23T01:15:15;100060.13;;;19.42;52.12
42411;BME280;28056;51.112;0.984;2022-10-23T01:17:47;100057.54;;;19.30;52.10
42411;BME280;28056;51.112;0.984;2022-10-23T01:20:30;100055.73;;;19.65;52.44
42411;BME280;28056;51.112;0.984;2022-10-23T01:24:29;100054.24;;;19.84;52.22
42411;BME280;28056;51.112;0.984;2022-10-23T01:27:13;100041.83;;;19.77;52.15
42411;BME280;28056;51.112;0.984;2022-10-23T01:29:42;100033.20;;;19.88;52.20
42411;BME280;28056;51.112;0.984;2022-10-23T01:32:14;100031.67;;;19.72;52.07
42411;BME280;28056;51.112;0.984;2022-10-23T01:34:47;100029.14;;;19.79;51.97
42411;BME280;28056;51.112;0.984;2022-10-23T01:37:21;100024.67;;;20.07;51.93
42411;BME280;28056;51.112;0.984;2022-10-23T01:39:52;100009.29;;;19.87;51.86
42411;BME280;28056;51.112;0.984;2022-10-23T01:42:24;99998.69;;;19.91;51.88
42411;BME280;28056;51.112;0.984;2022-10-23T01:44:58;99993.85;;;19.74;51.82
42411;BME280;28056;51.112;0.984;2022-10-23T01:47:30;100000.48;;;19.97;51.81
42411;BME280;28056;51.112;0.984;2022-10-23T01:50:02;99997.24;;;20.22;51.64
42411;BME280;28056;51.112;0.984;2022-10-23T01:52:31;100000.46;;;19.96;51.71
42411;BME280;28056;51.112;0.984;2022-10-23T01:55:00;100001.14;;;20.15;51.59
42411;BME280;28056;51.112;0.984;2022-10-23T01:57:30;100001.75;;;20.11;51.51
42411;BME280;28056;51.112;0.984;2022-10-23T02:00:00;99999.70;;;19.84;51.57
42411;BME280;28056;51.112;0.984;2022-10-23T02:02:31;99990.85;;;20.07;51.65
42411;BME280;28056;51.112;0.984;2022-10-23T02:05:02;99986.84;;;20.07;51.68
42411;BME280;28056;51.112;0.984;2022-10-23T02:07:32;99981.10;;;20.06;51.72
42411;BME280;28056;51.112;0.984;2022-10-23T02:09:59;99973.34;;;19.78;51.76
42411;BME280;28056;51.112;0.984;2022-10-23T02:12:34;99960.18;;;20.06;51.88
42411;BME280;28056;51.112;0.984;2022-10-23T02:15:10;99952.43;;;19.78;52.65
42411;BME280;28056;51.112;0.984;2022-10-23T02:17:46;99951.94;;;20.10;52.29
42411;BME280;28056;51.112;0.984;2022-10-23T02:20:19;99952.25;;;19.89;52.15
42411;BME280;28056;51.112;0.984;2022-10-23T02:22:57;99954.19;;;19.89;52.40
42411;BME280;28056;51.112;0.984;2022-10-23T02:25:32;99946.84;;;19.94;51.95
42411;BME280;28056;51.112;0.984;2022-10-23T02:28:09;99940.33;;;19.96;51.92
42411;BME280;28056;51.112;0.984;2022-10-23T02:30:43;99939.21;;;20.20;51.80
42411;BME280;28056;51.112;0.984;2022-10-23T02:33:12;99929.89;;;19.98;51.79
42411;BME280;28056;51.112;0.984;2022-10-23T02:35:41;99913.12;;;19.81;51.85
42411;BME280;28056;51.112;0.984;2022-10-23T02:38:28;99903.31;;;19.94;52.00
42411;BME280;28056;51.112;0.984;2022-10-23T02:41:00;99894.48;;;19.85;51.88
42411;BME280;28056;51.112;0.984;2022-10-23T02:43:35;99885.73;;;20.34;51.88
42411;BME280;28056;51.112;0.984;2022-10-23T02:46:10;99881.96;;;20.15;51.82
42411;BME280;28056;51.112;0.984;2022-10-23T02:48:47;99878.02;;;20.16;51.62
42411;BME280;28056;51.112;0.984;2022-10-23T02:51:24;99871.69;;;20.10;51.70
42411;BME280;28056;51.112;0.984;2022-10-23T02:54:03;99858.80;;;19.99;51.55
42411;BME280;28056;51.112;0.984;2022-10-23T02:56:38;99847.14;;;20.01;52.05
42411;BME280;28056;51.112;0.984;2022-10-23T02:59:10;99844.48;;;20.27;51.83
42411;BME280;28056;51.112;0.984;2022-10-23T03:01:47;99840.69;;;20.04;52.11
42411;BME280;28056;51.112;0.984;2022-10-23T03:04:16;99839.17;;;20.29;51.60
42411;BME280;28056;51.112;0.984;2022-10-23T03:06:46;99841.01;;;20.05;51.60
42411;BME280;28056;51.112;0.984;2022-10-23T03:09:13;99840.92;;;20.01;51.36
42411;BME280;28056;51.112;0.984;2022-10-23T03:11:41;99832.73;;;19.91;51.18
42411;BME280;28056;51.112;0.984;2022-10-23T03:14:09;99830.44;;;19.95;51.55
42411;BME280;28056;51.112;0.984;2022-10-23T03:16:37;99831.51;;;20.08;51.28
42411;BME280;28056;51.112;0.984;2022-10-23T03:19:04;99832.60;;;19.68;52.30
42411;BME280;28056;51.112;0.984;2022-10-23T03:21:32;99843.08;;;19.75;51.58
42411;BME280;28056;51.112;0.984;2022-10-23T03:23:59;99842.35;;;19.66;51.58
42411;BME280;28056;51.112;0.984;2022-10-23T03:26:27;99838.88;;;19.48;51.75
42411;BME280;28056;51.112;0.984;2022-10-23T03:28:55;99836.53;;;19.36;52.17
42411;BME280;28056;51.112;0.984;2022-10-23T03:31:22;99828.55;;;19.36;52.00
42411;BME280;28056;51.112;0.984;2022-10-23T03:33:50;99822.58;;;19.58;52.14
42411;BME280;28056;51.112;0.984;2022-10-23T03:36:17;99814.58;;;19.48;52.34
42411;BME280;28056;51.112;0.984;2022-10-23T03:38:45;99807.33;;;19.23;52.49
42411;BME280;28056;51.112;0.984;2022-10-23T03:41:12;99794.39;;;19.32;52.31
42411;BME280;28056;51.112;0.984;2022-10-23T03:43:40;99787.30;;;19.77;51.92
42411;BME280;28056;51.112;0.984;2022-10-23T03:46:07;99781.25;;;19.78;51.41
42411;BME280;28056;51.112;0.984;2022-10-23T03:48:35;99782.44;;;19.86;51.53
42411;BME280;28056;51.112;0.984;2022-10-23T03:51:03;99786.72;;;19.71;51.49
42411;BME280;28056;51.112;0.984;2022-10-23T03:53:30;99782.07;;;19.48;51.52
42411;BME280;28056;51.112;0.984;2022-10-23T03:55:58;99781.00;;;19.64;51.47
42411;BME280;28056;51.112;0.984;2022-10-23T03:58:25;99776.30;;;19.57;51.40
42411;BME280;28056;51.112;0.984;2022-10-23T04:00:53;99768.00;;;19.69;51.66
42411;BME280;28056;51.112;0.984;2022-10-23T04:03:20;99768.14;;;19.72;51.60
42411;BME280;28056;51.112;0.984;2022-10-23T04:05:48;99765.19;;;19.66;51.40
42411;BME280;28056;51.112;0.984;2022-10-23T04:08:16;99760.52;;;19.62;51.39
42411;BME280;28056;51.112;0.984;2022-10-23T04:10:43;99758.46;;;19.61;51.30
42411;BME280;28056;51.112;0.984;2022-10-23T04:13:11;99757.31;;;19.24;51.17
42411;BME280;28056;51.112;0.984;2022-10-23T04:15:38;99754.42;;;19.41;51.46
42411;BME280;28056;51.112;0.984;2022-10-23T04:18:06;99749.86;;;19.21;51.52
42411;BME280;28056;51.112;0.984;2022-10-23T04:20:34;99743.41;;;18.77;52.34
42411;BME280;28056;51.112;0.984;2022-10-23T04:23:01;99734.60;;;18.05;54.41
42411;BME280;28056;51.112;0.984;2022-10-23T04:25:29;99735.66;;;18.26;54.38
42411;BME280;28056;51.112;0.984;2022-10-23T04:27:56;99734.68;;;18.02;53.83
42411;BME280;28056;51.112;0.984;2022-10-23T04:30:34;99734.08;;;18.57;53.45
42411;BME280;28056;51.112;0.984;2022-10-23T04:33:11;99723.04;;;18.55;53.24
42411;BME280;28056;51.112;0.984;2022-10-23T04:35:38;99715.06;;;18.61;53.40
42411;BME280;28056;51.112;0.984;2022-10-23T04:38:06;99705.19;;;18.71;53.03
42411;BME280;28056;51.112;0.984;2022-10-23T04:40:33;99693.94;;;18.77;52.84
42411;BME280;28056;51.112;0.984;2022-10-23T04:43:01;99695.90;;;18.82;52.39
42411;BME280;28056;51.112;0.984;2022-10-23T04:45:28;99692.75;;;18.69;52.59
42411;BME280;28056;51.112;0.984;2022-10-23T04:47:56;99682.03;;;19.14;52.11
42411;BME280;28056;51.112;0.984;2022-10-23T04:50:24;99677.75;;;19.12;52.00
42411;BME280;28056;51.112;0.984;2022-10-23T04:52:53;99667.02;;;19.29;52.14
42411;BME280;28056;51.112;0.984;2022-10-23T04:55:21;99653.44;;;19.27;51.66
42411;BME280;28056;51.112;0.984;2022-10-23T04:57:48;99645.95;;;19.49;51.98
42411;BME280;28056;51.112;0.984;2022-10-23T05:00:17;99658.68;;;19.24;51.59
42411;BME280;28056;51.112;0.984;2022-10-23T05:02:45;99657.55;;;19.12;51.35
42411;BME280;28056;51.112;0.984;2022-10-23T05:05:12;99648.38;;;19.35;51.47
42411;BME280;28056;51.112;0.984;2022-10-23T05:07:40;99639.83;;;18.94;51.39
42411;BME280;28056;51.112;0.984;2022-10-23T05:10:08;99634.63;;;19.32;51.60
42411;BME280;28056;51.112;0.984;2022-10-23T05:12:35;99633.19;;;19.41;50.88
42411;BME280;28056;51.112;0.984;2022-10-23T05:15:03;99629.24;;;19.28;50.55
42411;BME280;28056;51.112;0.984;2022-10-23T05:17:34;99624.66;;;19.06;50.87
42411;BME280;28056;51.112;0.984;2022-10-23T05:20:06;99617.82;;;19.39;50.39
42411;BME280;28056;51.112;0.984;2022-10-23T05:22:37;99612.48;;;19.20;49.93
42411;BME280;28056;51.112;0.984;2022-10-23T05:25:06;99610.42;;;19.11;49.83
42411;BME280;28056;51.112;0.984;2022-10-23T05:27:33;99607.18;;;19.66;49.75
42411;BME280;28056;51.112;0.984;2022-10-23T05:30:02;99600.42;;;19.77;49.97
42411;BME280;28056;51.112;0.984;2022-10-23T05:32:30;99593.94;;;19.92;49.75
42411;BME280;28056;51.112;0.984;2022-10-23T05:35:00;99596.08;;;19.94;49.76
42411;BME280;28056;51.112;0.984;2022-10-23T05:37:30;99591.46;;;20.01;49.55
42411;BME280;28056;51.112;0.984;2022-10-23T05:39:57;99594.78;;;20.00;49.84
42411;BME280;28056;51.112;0.984;2022-10-23T05:42:25;99594.82;;;19.51;49.93
42411;BME280;28056;51.112;0.984;2022-10-23T05:44:52;99580.99;;;19.71;49.79
42411;BME280;28056;51.112;0.984;2022-10-23T05:47:20;99582.01;;;20.01;49.34
42411;BME280;28056;51.112;0.984;2022-10-23T05:49:48;99579.57;;;19.52;48.60
42411;BME280;28056;51.112;0.984;2022-10-23T05:52:15;99577.14;;;19.74;48.34
42411;BME280;28056;51.112;0.984;2022-10-23T05:54:43;99583.55;;;19.70;48.66
42411;BME280;28056;51.112;0.984;2022-10-23T05:57:10;99578.27;;;19.51;48.81
42411;BME280;28056;51.112;0.984;2022-10-23T05:59:38;99588.77;;;19.28;49.18
42411;BME280;28056;51.112;0.984;2022-10-23T06:02:06;99591.87;;;19.25;49.33
42411;BME280;28056;51.112;0.984;2022-10-23T06:04:33;99592.51;;;19.50;49.19
42411;BME280;28056;51.112;0.984;2022-10-23T06:07:01;99589.40;;;19.17;49.38
42411;BME280;28056;51.112;0.984;2022-10-23T06:09:29;99579.85;;;19.27;49.51
42411;BME280;28056;51.112;0.984;2022-10-23T06:11:56;99569.20;;;19.43;49.39
42411;BME280;28056;51.112;0.984;2022-10-23T06:14:24;99549.02;;;19.73;49.36
42411;BME280;28056;51.112;0.984;2022-10-23T06:16:51;99551.24;;;19.78;49.88
42411;BME280;28056;51.112;0.984;2022-10-23T06:19:19;99545.33;;;19.05;50.65
42411;BME280;28056;51.112;0.984;2022-10-23T06:21:46;99544.74;;;18.69;50.78
42411;BME280;28056;51.112;0.984;2022-10-23T06:24:14;99534.71;;;18.91;50.68
42411;BME280;28056;51.112;0.984;2022-10-23T06:26:42;99570.31;;;18.88;50.48
42411;BME280;28056;51.112;0.984;2022-10-23T06:29:09;99566.50;;;18.78;51.55
42411;BME280;28056;51.112;0.984;2022-10-23T06:31:37;99567.91;;;18.86;51.49
42411;BME280;28056;51.112;0.984;2022-10-23T06:34:04;99563.78;;;18.58;52.36
42411;BME280;28056;51.112;0.984;2022-10-23T06:36:32;99571.23;;;17.63;54.56
42411;BME280;28056;51.112;0.984;2022-10-23T06:38:59;99557.82;;;15.97;59.01
42411;BME280;28056;51.112;0.984;2022-10-23T06:41:27;99547.06;;;15.23;62.62
42411;BME280;28056;51.112;0.984;2022-10-23T06:43:55;99557.30;;;14.82;64.62
42411;BME280;28056;51.112;0.984;2022-10-23T06:46:22;99540.98;;;15.25;64.76
42411;BME280;28056;51.112;0.984;2022-10-23T06:48:50;99535.23;;;14.67;66.02
42411;BME280;28056;51.112;0.984;2022-10-23T06:51:18;99529.65;;;15.07;65.21
42411;BME280;28056;51.112;0.984;2022-10-23T06:53:45;99524.78;;;15.37;64.58
42411;BME280;28056;51.112;0.984;2022-10-23T06:56:13;99518.72;;;14.95;64.99
42411;BME280;28056;51.112;0.984;2022-10-23T06:58:41;99530.73;;;14.73;66.24
42411;BME280;28056;51.112;0.984;2022-10-23T07:01:11;99520.36;;;15.12;65.45
42411;BME280;28056;51.112;0.984;2022-10-23T07:03:39;99517.09;;;14.71;65.88
42411;BME280;28056;51.112;0.984;2022-10-23T07:06:08;99518.30;;;15.07;66.41
42411;BME280;28056;51.112;0.984;2022-10-23T07:08:36;99519.71;;;15.13;66.21
42411;BME280;28056;51.112;0.984;2022-10-23T07:11:04;99518.81;;;15.51;65.86
42411;BME280;28056;51.112;0.984;2022-10-23T07:13:33;99511.96;;;15.25;65.79
42411;BME280;28056;51.112;0.984;2022-10-23T07:16:09;99514.82;;;15.62;65.86
42411;BME280;28056;51.112;0.984;2022-10-23T07:18:37;99514.18;;;15.52;64.67
42411;BME280;28056;51.112;0.984;2022-10-23T07:21:05;99513.34;;;15.82;64.37
42411;BME280;28056;51.112;0.984;2022-10-23T07:23:33;99508.96;;;15.42;65.18
42411;BME280;28056;51.112;0.984;2022-10-23T07:26:05;99518.48;;;15.21;66.03
42411;BME280;28056;51.112;0.984;2022-10-23T07:28:32;99529.44;;;14.72;68.71
42411;BME280;28056;51.112;0.984;2022-10-23T07:31:01;99529.05;;;14.74;68.93
42411;BME280;28056;51.112;0.984;2022-10-23T07:33:28;99529.41;;;15.45;67.35
42411;BME280;28056;51.112;0.984;2022-10-23T07:35:56;99518.83;;;14.99;68.80
42411;BME280;28056;51.112;0.984;2022-10-23T07:38:24;99517.82;;;14.59;69.78
42411;BME280;28056;51.112;0.984;2022-10-23T07:40:51;99520.55;;;15.01;68.81
42411;BME280;28056;51.112;0.984;2022-10-23T07:43:21;99508.89;;;15.29;68.33
42411;BME280;28056;51.112;0.984;2022-10-23T07:46:05;99507.01;;;15.11;68.99
42411;BME280;28056;51.112;0.984;2022-10-23T07:48:33;99529.96;;;14.58;69.37
42411;BME280;28056;51.112;0.984;2022-10-23T07:51:02;99523.01;;;15.01;69.14
42411;BME280;28056;51.112;0.984;2022-10-23T07:53:30;99509.00;;;15.54;68.21
42411;BME280;28056;51.112;0.984;2022-10-23T07:56:00;99502.00;;;15.49;68.67
42411;BME280;28056;51.112;0.984;2022-10-23T07:58:28;99489.47;;;15.51;67.24
42411;BME280;28056;51.112;0.984;2022-10-23T08:00:57;99490.03;;;15.20;68.74
42411;BME280;28056;51.112;0.984;2022-10-23T08:03:26;99490.64;;;15.01;70.44
42411;BME280;28056;51.112;0.984;2022-10-23T08:05:53;99495.52;;;15.33;68.77
42411;BME280;28056;51.112;0.984;2022-10-23T08:08:22;99492.32;;;14.99;70.54
42411;BME280;28056;51.112;0.984;2022-10-23T08:10:51;99493.27;;;14.81;70.91
42411;BME280;28056;51.112;0.984;2022-10-23T08:13:19;99481.88;;;15.03;69.98
42411;BME280;28056;51.112;0.984;2022-10-23T08:15:48;99473.72;;;15.61;68.55
42411;BME280;28056;51.112;0.984;2022-10-23T08:18:16;99475.13;;;15.49;69.04
42411;BME280;28056;51.112;0.984;2022-10-23T08:20:45;99480.24;;;15.19;70.82
42411;BME280;28056;51.112;0.984;2022-10-23T08:23:15;99487.09;;;14.91;71.27
42411;BME280;28056;51.112;0.984;2022-10-23T08:25:42;99489.44;;;14.98;70.42
42411;BME280;28056;51.112;0.984;2022-10-23T08:28:10;99483.21;;;15.48;69.57
42411;BME280;28056;51.112;0.984;2022-10-23T08:30:37;99490.99;;;15.38;70.49
42411;BME280;28056;51.112;0.984;2022-10-23T08:33:06;99492.39;;;15.61;69.06
42411;BME280;28056;51.112;0.984;2022-10-23T08:35:35;99496.54;;;15.51;71.32
42411;BME280;28056;51.112;0.984;2022-10-23T08:38:03;99488.23;;;15.06;71.93
42411;BME280;28056;51.112;0.984;2022-10-23T08:40:31;99475.94;;;15.04;72.55
42411;BME280;28056;51.112;0.984;2022-10-23T08:43:04;99465.55;;;15.60;70.93
42411;BME280;28056;51.112;0.984;2022-10-23T08:45:35;99454.17;;;15.23;71.30
42411;BME280;28056;51.112;0.984;2022-10-23T08:48:09;99450.34;;;15.97;69.62
42411;BME280;28056;51.112;0.984;2022-10-23T08:50:48;99449.76;;;15.85;69.81
42411;BME280;28056;51.112;0.984;2022-10-23T08:53:25;99445.56;;;15.81;68.55
42411;BME280;28056;51.112;0.984;2022-10-23T08:55:59;99438.45;;;15.77;69.57
42411;BME280;28056;51.112;0.984;2022-10-23T08:58:34;99456.53;;;15.63;70.07
42411;BME280;28056;51.112;0.984;2022-10-23T09:01:08;99472.77;;;15.16;70.53
42411;BME280;28056;51.112;0.984;2022-10-23T09:03:44;99467.55;;;14.85;71.82
42411;BME280;28056;51.112;0.984;2022-10-23T09:06:20;99452.89;;;15.70;69.66
42411;BME280;28056;51.112;0.984;2022-10-23T09:08:57;99452.82;;;15.89;68.75
42411;BME280;28056;51.112;0.984;2022-10-23T09:11:31;99457.86;;;15.94;69.14
42411;BME280;28056;51.112;0.984;2022-10-23T09:14:24;99462.27;;;15.29;69.93
42411;BME280;28056;51.112;0.984;2022-10-23T09:17:07;99453.42;;;15.45;69.74
42411;BME280;28056;51.112;0.984;2022-10-23T09:19:36;99438.16;;;15.45;69.52
42411;BME280;28056;51.112;0.984;2022-10-23T09:22:04;99448.27;;;15.79;70.78
42411;BME280;28056;51.112;0.984;2022-10-23T09:24:35;99464.76;;;15.83;70.95
42411;BME280;28056;51.112;0.984;2022-10-23T09:27:03;99485.26;;;15.21;71.07
42411;BME280;28056;51.112;0.984;2022-10-23T09:29:32;99487.13;;;15.54;72.57
42411;BME280;28056;51.112;0.984;2022-10-23T09:32:02;99473.31;;;15.15;75.97
42411;BME280;28056;51.112;0.984;2022-10-23T09:34:32;99482.25;;;15.14;76.38
42411;BME280;28056;51.112;0.984;2022-10-23T09:37:01;99471.82;;;14.31;79.98
42411;BME280;28056;51.112;0.984;2022-10-23T09:39:32;99467.46;;;14.70;80.33
42411;BME280;28056;51.112;0.984;2022-10-23T09:42:13;99458.72;;;14.77;79.25
42411;BME280;28056;51.112;0.984;2022-10-23T09:44:48;99489.33;;;14.20;82.50
42411;BME280;28056;51.112;0.984;2022-10-23T09:47:20;99461.13;;;15.07;80.98
42411;BME280;28056;51.112;0.984;2022-10-23T09:49:50;99458.13;;;14.92;78.90
42411;BME280;28056;51.112;0.984;2022-10-23T09:52:23;99475.43;;;14.46;80.53
42411;BME280;28056;51.112;0.984;2022-10-23T09:54:55;99483.34;;;14.16;81.41
42411;BME280;28056;51.112;0.984;2022-10-23T10:00:52;99466.20;;;13.39;88.42
42411;BME280;28056;51.112;0.984;2022-10-23T10:03:24;99466.26;;;13.80;86.07
42411;BME280;28056;51.112;0.984;2022-10-23T10:05:55;99460.63;;;13.60;85.46
42411;BME280;28056;51.112;0.984;2022-10-23T10:08:30;99453.56;;;13.77;83.13
42411;BME280;28056;51.112;0.984;2022-10-23T10:11:01;99448.52;;;14.88;79.26
42411;BME280;28056;51.112;0.984;2022-10-23T10:13:43;99454.47;;;15.10;76.03
42411;BME280;28056;51.112;0.984;2022-10-23T10:16:22;99450.59;;;14.59;78.60
42411;BME280;28056;51.112;0.984;2022-10-23T10:18:56;99455.19;;;14.25;79.27
42411;BME280;28056;51.112;0.984;2022-10-23T10:21:32;99460.24;;;14.91;78.37
42411;BME280;28056;51.112;0.984;2022-10-23T10:24:07;99461.72;;;15.07;76.86
42411;BME280;28056;51.112;0.984;2022-10-23T10:26:47;99456.87;;;14.63;79.53
42411;BME280;28056;51.112;0.984;2022-10-23T10:29:23;99447.15;;;14.82;77.94
42411;BME280;28056;51.112;0.984;2022-10-23T10:32:02;99448.22;;;15.26;76.19
42411;BME280;28056;51.112;0.984;2022-10-23T10:34:38;99436.58;;;15.08;77.70
42411;BME280;28056;51.112;0.984;2022-10-23T10:37:20;99409.04;;;14.94;76.91
42411;BME280;28056;51.112;0.984;2022-10-23T10:39:59;99408.65;;;14.91;78.49
42411;BME280;28056;51.112;0.984;2022-10-23T10:42:41;99400.23;;;14.70;80.97
42411;BME280;28056;51.112;0.984;2022-10-23T10:45:18;99399.66;;;14.79;79.18
42411;BME280;28056;51.112;0.984;2022-10-23T10:47:55;99408.85;;;14.74;76.18
42411;BME280;28056;51.112;0.984;2022-10-23T10:50:30;99416.77;;;14.95;76.38
42411;BME280;28056;51.112;0.984;2022-10-23T10:53:08;99419.00;;;14.66;77.87
42411;BME280;28056;51.112;0.984;2022-10-23T10:55:41;99409.47;;;15.53;75.60
42411;BME280;28056;51.112;0.984;2022-10-23T10:58:16;99411.31;;;15.80;73.36
42411;BME280;28056;51.112;0.984;2022-10-23T11:00:48;99410.54;;;15.66;74.36
42411;BME280;28056;51.112;0.984;2022-10-23T11:03:23;99401.00;;;15.62;74.81
42411;BME280;28056;51.112;0.984;2022-10-23T11:05:55;99384.81;;;16.02;73.76
42411;BME280;28056;51.112;0.984;2022-10-23T11:08:32;99374.20;;;16.25;72.81
42411;BME280;28056;51.112;0.984;2022-10-23T11:11:05;99377.66;;;15.71;73.03
42411;BME280;28056;51.112;0.984;2022-10-23T11:13:36;99388.07;;;15.59;74.74
42411;BME280;28056;51.112;0.984;2022-10-23T11:16:11;99394.46;;;14.91;74.95
42411;BME280;28056;51.112;0.984;2022-10-23T11:18:42;99406.83;;;15.56;72.26
42411;BME280;28056;51.112;0.984;2022-10-23T11:21:23;99412.42;;;15.74;73.52
42411;BME280;28056;51.112;0.984;2022-10-23T11:24:49;99400.04;;;15.13;73.95
42411;BME280;28056;51.112;0.984;2022-10-23T11:27:30;99381.57;;;15.54;72.85
42411;BME280;28056;51.112;0.984;2022-10-23T11:30:12;99378.52;;;15.70;73.02
42411;BME280;28056;51.112;0.984;2022-10-23T11:36:14;99352.60;;;15.70;74.80
42411;BME280;28056;51.112;0.984;2022-10-23T11:38:44;99352.04;;;15.79;72.90
42411;BME280;28056;51.112;0.984;2022-10-23T11:41:18;99352.72;;;15.75;72.40
42411;BME280;28056;51.112;0.984;2022-10-23T11:43:48;99348.30;;;14.97;74.03
42411;BME280;28056;51.112;0.984;2022-10-23T11:46:30;99332.53;;;16.33;73.10
42411;BME280;28056;51.112;0.984;2022-10-23T11:48:58;99329.20;;;15.95;73.27
42411;BME280;28056;51.112;0.984;2022-10-23T11:51:27;99329.04;;;15.04;74.89
42411;BME280;28056;51.112;0.984;2022-10-23T11:54:28;99331.53;;;15.28;74.89
42411;BME280;28056;51.112;0.984;2022-10-23T11:57:09;99328.88;;;15.13;76.09
42411;BME280;28056;51.112;0.984;2022-10-23T11:59:50;99307.23;;;14.82;76.93
42411;BME280;28056;51.112;0.984;2022-10-23T12:02:26;99314.84;;;15.12;76.24
42411;BME280;28056;51.112;0.984;2022-10-23T12:04:55;99316.11;;;15.58;75.28
42411;BME280;28056;51.112;0.984;2022-10-23T12:07:25;99318.41;;;15.54;74.47
42411;BME280;28056;51.112;0.984;2022-10-23T12:09:56;99325.01;;;15.48;74.29
42411;BME280;28056;51.112;0.984;2022-10-23T12:12:30;99330.81;;;15.31;75.12
42411;BME280;28056;51.112;0.984;2022-10-23T12:15:30;99323.55;;;15.00;76.47
42411;BME280;28056;51.112;0.984;2022-10-23T12:18:12;99316.50;;;15.57;75.65
42411;BME280;28056;51.112;0.984;2022-10-23T12:20:45;99310.82;;;15.53;77.11
42411;BME280;28056;51.112;0.984;2022-10-23T12:23:38;99302.16;;;15.46;76.01
42411;BME280;28056;51.112;0.984;2022-10-23T12:26:21;99301.81;;;15.14;75.76
42411;BME280;28056;51.112;0.984;2022-10-23T12:29:03;99294.75;;;15.71;73.60
42411;BME280;28056;51.112;0.984;2022-10-23T12:31:42;99283.90;;;15.74;74.27
42411;BME280;28056;51.112;0.984;2022-10-23T12:34:23;99277.88;;;14.96;78.02
42411;BME280;28056;51.112;0.984;2022-10-23T12:37:02;99271.97;;;15.88;75.13
42411;BME280;28056;51.112;0.984;2022-10-23T12:39:34;99267.29;;;16.17;74.82
42411;BME280;28056;51.112;0.984;2022-10-23T12:42:03;99255.70;;;15.83;74.71
42411;BME280;28056;51.112;0.984;2022-10-23T12:44:31;99246.36;;;16.76;73.07
42411;BME280;28056;51.112;0.984;2022-10-23T12:47:00;99244.79;;;17.01;71.86
42411;BME280;28056;51.112;0.984;2022-10-23T12:49:30;99246.84;;;17.56;70.15
42411;BME280;28056;51.112;0.984;2022-10-23T12:52:00;99244.57;;;16.33;71.41
42411;BME280;28056;51.112;0.984;2022-10-23T12:54:29;99240.51;;;16.55;71.58
42411;BME280;28056;51.112;0.984;2022-10-23T12:56:57;99239.25;;;16.97;70.48
42411;BME280;28056;51.112;0.984;2022-10-23T12:59:26;99227.35;;;17.01;69.49
42411;BME280;28056;51.112;0.984;2022-10-23T13:01:54;99224.03;;;18.40;67.32
42411;BME280;28056;51.112;0.984;2022-10-23T13:04:27;99216.70;;;18.83;65.88
42411;BME280;28056;51.112;0.984;2022-10-23T13:06:57;99213.31;;;18.95;63.04
42411;BME280;28056;51.112;0.984;2022-10-23T13:09:28;99215.83;;;19.19;61.13
42411;BME280;28056;51.112;0.984;2022-10-23T13:11:59;99209.28;;;18.41;62.10
42411;BME280;28056;51.112;0.984;2022-10-23T13:14:32;99213.68;;;17.98;64.11
42411;BME280;28056;51.112;0.984;2022-10-23T13:17:01;99206.76;;;17.47;64.82
42411;BME280;28056;51.112;0.984;2022-10-23T13:19:29;99205.07;;;17.05;66.90
42411;BME280;28056;51.112;0.984;2022-10-23T13:21:57;99196.56;;;17.06;66.90
42411;BME280;28056;51.112;0.984;2022-10-23T13:24:27;99182.96;;;17.31;66.40
42411;BME280;28056;51.112;0.984;2022-10-23T13:26:56;99172.74;;;18.78;64.78
42411;BME280;28056;51.112;0.984;2022-10-23T13:29:26;99168.12;;;18.93;60.60
42411;BME280;28056;51.112;0.984;2022-10-23T13:31:55;99166.57;;;20.22;58.11
42411;BME280;28056;51.112;0.984;2022-10-23T13:34:28;99159.31;;;22.61;53.97